Tim S. Dool — VGPY — position and weather

sailwx.info

Track history (hours):
 
Tides and Currents Weather Stations Pressure Air Temp Water Temp Dewpoint Dewpoint Depression Visibility Wind Speed Wind Dir Waves Ship Positions

Tim S. Dool

Last reported at 2014-Sep-03 01:33 UTC. Time now 2014-Sep-03 02:25 UTC.
Position N 46°20' W 072°33'.

Length 223 m; draft 7.8 m.

Type: Cargo ship. MMSI: 316001696.

Date/timePositionNaut miles runAvg speedWind from/ knotsBaromVisibWave heightAir tempDewpointWater temp
2014-Sep-03 01:33N 46°20' W 072°33'0 0.5
2014-Sep-03 00:33N 46°20' W 072°32'4 4.3
2014-Sep-02 23:33N 46°17' W 072°37'1312.6
2014-Sep-02 22:33N 46°12' W 072°53'1312.6
2014-Sep-02 21:33N 46°03' W 073°07'1212.2
2014-Sep-02 20:33N 45°53' W 073°15'1313.3
2014-Sep-02 19:33N 45°42' W 073°27'1111.1
2014-Sep-02 18:33N 45°31' W 073°32'2 1.9
2014-Sep-02 17:33N 45°30' W 073°31'1 1.0
2014-Sep-02 16:33N 45°29' W 073°31'4 4.3
2014-Sep-02 15:33N 45°24' W 073°32'2 1.7
2014-Sep-02 14:33N 45°24' W 073°35'4 4.2
2014-Sep-02 13:33N 45°25' W 073°41'9 9.0
2014-Sep-02 12:33N 45°21' W 073°52'3 3.3
2014-Sep-02 11:33N 45°19' W 073°55'0 0.5
2014-Sep-02 10:33N 45°18' W 073°56'2 1.6
2014-Sep-02 09:33N 45°17' W 073°57'6 5.8
2014-Sep-02 08:33N 45°13' W 074°03'9 8.9
2014-Sep-02 07:33N 45°13' W 074°16'1211.5
2014-Sep-02 06:33N 45°06' W 074°29'10 9.8
2014-Sep-02 05:33N 45°00' W 074°40'5 4.8
2014-Sep-02 04:33N 44°59' W 074°47'3 2.7
2014-Sep-02 03:33N 44°59' W 074°51'1 1.0
2014-Sep-02 02:33N 44°59' W 074°52'9 8.9
2014-Sep-02 01:33N 44°56' W 075°04'1110.7
2014-Sep-02 00:33N 44°51' W 075°17'3 3.1
2014-Sep-01 23:33N 44°49' W 075°20'9 9.5
2014-Sep-01 22:33N 44°42' W 075°30'1212.1
2014-Sep-01 21:33N 44°34' W 075°42'1010.4
2014-Sep-01 20:33N 44°25' W 075°50'1010.3
2014-Sep-01 19:33N 44°18' W 075°60'1110.8
2014-Sep-01 18:33N 44°12' W 076°13'1311.4
2014-Sep-01 17:27N 44°04' W 076°26'5412.1
2014-Sep-01 13:00N 43°36' W 077°30'5813.1 140 / 51011.0 2.2 22.0
2014-Sep-01 08:33N 43°24' W 078°48'96 5.2
2014-Aug-31 14:00N 42°18' W 080°24'161 6.2 220 / 171012.010.8 1.023.0
2014-Aug-30 12:00N 44°24' W 082°42'10213.7 170 / 131009.010.8 1.020.0
2014-Aug-30 04:33N 45°54' W 083°50'1110.6
2014-Aug-30 03:33N 46°03' W 083°58'1018.3
2014-Aug-30 03:00N 46°12' W 084°06'152 3.0 120 / 101010.0 5.4 19.0
2014-Aug-28 01:00N 47°42' W 087°06'158 9.4 260 / 21018.010.8 0.514.0
2014-Aug-27 08:14N 46°07' W 084°01'268 8.6
2014-Aug-26 01:00N 42°06' W 081°18'11010.0 110 / 91015.010.8 0.524.0
2014-Aug-25 14:00N 43°06' W 079°12'1 3.3 170 / 51007.010.8 23.0
2014-Aug-25 13:33N 43°07' W 079°12'1 0.5
2014-Aug-25 12:33N 43°08' W 079°12'5 1.2
2014-Aug-25 08:20N 43°13' W 079°13'1 0.7
2014-Aug-25 07:27N 43°14' W 079°13'26 6.3
2014-Aug-25 03:24N 43°16' W 079°48'0 0.0
2014-Aug-25 02:33N 43°16' W 079°48'0 0.0
2014-Aug-25 01:33N 43°16' W 079°48'0 0.0
2014-Aug-25 00:33N 43°16' W 079°48'0 0.0
2014-Aug-24 23:33N 43°16' W 079°48'0 0.0
2014-Aug-24 22:32N 43°16' W 079°48'0 0.0
2014-Aug-24 21:24N 43°16' W 079°48'0 0.0
2014-Aug-24 20:33N 43°16' W 079°48'0 0.0
2014-Aug-24 19:33N 43°16' W 079°48'0 0.0
2014-Aug-24 18:33N 43°16' W 079°48'72 4.8
2014-Aug-24 03:33N 43°36' W 078°12'  
Track history (hours):
 
Tides and Currents Weather Stations Pressure Air Temp Water Temp Dewpoint Dewpoint Depression Visibility Wind Speed Wind Dir Waves Ship Positions

Tim S. Dool

Last reported at 2014-Sep-03 01:33 UTC. Time now 2014-Sep-03 02:25 UTC.
Position N 46°20' W 072°33'.

Length 223 m; draft 7.8 m.

Type: Cargo ship. MMSI: 316001696.

Date/timePositionNaut miles runAvg speedWind from/ knotsBaromVisibWave heightAir tempDewpointWater temp
2014-Sep-03 01:33N 46°20' W 072°33'0 0.5
2014-Sep-03 00:33N 46°20' W 072°32'4 4.3
2014-Sep-02 23:33N 46°17' W 072°37'1312.6
2014-Sep-02 22:33N 46°12' W 072°53'1312.6
2014-Sep-02 21:33N 46°03' W 073°07'1212.2
2014-Sep-02 20:33N 45°53' W 073°15'1313.3
2014-Sep-02 19:33N 45°42' W 073°27'1111.1
2014-Sep-02 18:33N 45°31' W 073°32'2 1.9
2014-Sep-02 17:33N 45°30' W 073°31'1 1.0
2014-Sep-02 16:33N 45°29' W 073°31'4 4.3
2014-Sep-02 15:33N 45°24' W 073°32'2 1.7
2014-Sep-02 14:33N 45°24' W 073°35'4 4.2
2014-Sep-02 13:33N 45°25' W 073°41'9 9.0
2014-Sep-02 12:33N 45°21' W 073°52'3 3.3
2014-Sep-02 11:33N 45°19' W 073°55'0 0.5
2014-Sep-02 10:33N 45°18' W 073°56'2 1.6
2014-Sep-02 09:33N 45°17' W 073°57'6 5.8
2014-Sep-02 08:33N 45°13' W 074°03'9 8.9
2014-Sep-02 07:33N 45°13' W 074°16'1211.5
2014-Sep-02 06:33N 45°06' W 074°29'10 9.8
2014-Sep-02 05:33N 45°00' W 074°40'5 4.8
2014-Sep-02 04:33N 44°59' W 074°47'3 2.7
2014-Sep-02 03:33N 44°59' W 074°51'1 1.0
2014-Sep-02 02:33N 44°59' W 074°52'9 8.9
2014-Sep-02 01:33N 44°56' W 075°04'1110.7
2014-Sep-02 00:33N 44°51' W 075°17'3 3.1
2014-Sep-01 23:33N 44°49' W 075°20'9 9.5
2014-Sep-01 22:33N 44°42' W 075°30'1212.1
2014-Sep-01 21:33N 44°34' W 075°42'1010.4
2014-Sep-01 20:33N 44°25' W 075°50'1010.3
2014-Sep-01 19:33N 44°18' W 075°60'1110.8
2014-Sep-01 18:33N 44°12' W 076°13'1311.4
2014-Sep-01 17:27N 44°04' W 076°26'5412.1
2014-Sep-01 13:00N 43°36' W 077°30'5813.1 140 / 51011.0 2.2 22.0
2014-Sep-01 08:33N 43°24' W 078°48'96 5.2
2014-Aug-31 14:00N 42°18' W 080°24'161 6.2 220 / 171012.010.8 1.023.0
2014-Aug-30 12:00N 44°24' W 082°42'10213.7 170 / 131009.010.8 1.020.0
2014-Aug-30 04:33N 45°54' W 083°50'1110.6
2014-Aug-30 03:33N 46°03' W 083°58'1018.3
2014-Aug-30 03:00N 46°12' W 084°06'152 3.0 120 / 101010.0 5.4 19.0
2014-Aug-28 01:00N 47°42' W 087°06'158 9.4 260 / 21018.010.8 0.514.0
2014-Aug-27 08:14N 46°07' W 084°01'268 8.6
2014-Aug-26 01:00N 42°06' W 081°18'11010.0 110 / 91015.010.8 0.524.0
2014-Aug-25 14:00N 43°06' W 079°12'1 3.3 170 / 51007.010.8 23.0
2014-Aug-25 13:33N 43°07' W 079°12'1 0.5
2014-Aug-25 12:33N 43°08' W 079°12'5 1.2
2014-Aug-25 08:20N 43°13' W 079°13'1 0.7
2014-Aug-25 07:27N 43°14' W 079°13'26 6.3
2014-Aug-25 03:24N 43°16' W 079°48'0 0.0
2014-Aug-25 02:33N 43°16' W 079°48'0 0.0
2014-Aug-25 01:33N 43°16' W 079°48'0 0.0
2014-Aug-25 00:33N 43°16' W 079°48'0 0.0
2014-Aug-24 23:33N 43°16' W 079°48'0 0.0
2014-Aug-24 22:32N 43°16' W 079°48'0 0.0
2014-Aug-24 21:24N 43°16' W 079°48'0 0.0
2014-Aug-24 20:33N 43°16' W 079°48'0 0.0
2014-Aug-24 19:33N 43°16' W 079°48'0 0.0
2014-Aug-24 18:33N 43°16' W 079°48'72 4.8
2014-Aug-24 03:33N 43°36' W 078°12'  

Dump ship's entire track history